sensor_id;sensor_type;location;lat;lon;timestamp;P1;durP1;ratioP1;P2;durP2;ratioP2
75165;SDS011;63747;48.042;10.088;2023-03-01T00:01:47;24.33;;;15.35;;
75165;SDS011;63747;48.042;10.088;2023-03-01T00:04:48;24.23;;;15.93;;
75165;SDS011;63747;48.042;10.088;2023-03-01T00:07:51;21.90;;;16.17;;
75165;SDS011;63747;48.042;10.088;2023-03-01T00:14:12;22.13;;;15.98;;
75165;SDS011;63747;48.042;10.088;2023-03-01T00:17:13;21.77;;;15.80;;
75165;SDS011;63747;48.042;10.088;2023-03-01T00:20:14;21.83;;;16.33;;
75165;SDS011;63747;48.042;10.088;2023-03-01T00:23:14;22.30;;;16.17;;
75165;SDS011;63747;48.042;10.088;2023-03-01T00:26:16;22.00;;;15.50;;
75165;SDS011;63747;48.042;10.088;2023-03-01T00:29:17;21.98;;;15.50;;
75165;SDS011;63747;48.042;10.088;2023-03-01T00:32:18;22.97;;;16.73;;
75165;SDS011;63747;48.042;10.088;2023-03-01T00:35:19;22.37;;;16.57;;
75165;SDS011;63747;48.042;10.088;2023-03-01T00:38:19;23.00;;;16.20;;
75165;SDS011;63747;48.042;10.088;2023-03-01T00:41:20;20.67;;;15.40;;
75165;SDS011;63747;48.042;10.088;2023-03-01T00:44:26;21.13;;;16.92;;
75165;SDS011;63747;48.042;10.088;2023-03-01T00:47:28;23.50;;;16.88;;
75165;SDS011;63747;48.042;10.088;2023-03-01T00:50:29;28.30;;;18.10;;
75165;SDS011;63747;48.042;10.088;2023-03-01T00:53:30;22.50;;;17.47;;
75165;SDS011;63747;48.042;10.088;2023-03-01T00:56:31;24.98;;;17.25;;
75165;SDS011;63747;48.042;10.088;2023-03-01T00:59:32;22.83;;;17.13;;
75165;SDS011;63747;48.042;10.088;2023-03-01T01:02:33;23.00;;;16.20;;
75165;SDS011;63747;48.042;10.088;2023-03-01T01:05:34;27.07;;;16.90;;
75165;SDS011;63747;48.042;10.088;2023-03-01T01:08:35;22.92;;;15.02;;
75165;SDS011;63747;48.042;10.088;2023-03-01T01:11:36;22.80;;;16.70;;
75165;SDS011;63747;48.042;10.088;2023-03-01T01:14:36;22.50;;;17.00;;
75165;SDS011;63747;48.042;10.088;2023-03-01T01:17:37;24.47;;;17.13;;
75165;SDS011;63747;48.042;10.088;2023-03-01T01:20:38;23.23;;;17.40;;
75165;SDS011;63747;48.042;10.088;2023-03-01T01:23:39;22.63;;;16.60;;
75165;SDS011;63747;48.042;10.088;2023-03-01T01:26:41;22.60;;;16.25;;
75165;SDS011;63747;48.042;10.088;2023-03-01T01:29:42;25.98;;;17.83;;
75165;SDS011;63747;48.042;10.088;2023-03-01T01:32:43;21.27;;;17.03;;
75165;SDS011;63747;48.042;10.088;2023-03-01T01:35:44;25.07;;;16.90;;
75165;SDS011;63747;48.042;10.088;2023-03-01T01:38:46;23.25;;;16.95;;
75165;SDS011;63747;48.042;10.088;2023-03-01T01:41:47;20.67;;;15.23;;
75165;SDS011;63747;48.042;10.088;2023-03-01T01:44:47;22.70;;;15.43;;
75165;SDS011;63747;48.042;10.088;2023-03-01T01:47:48;28.90;;;18.80;;
75165;SDS011;63747;48.042;10.088;2023-03-01T01:50:58;23.80;;;17.53;;
75165;SDS011;63747;48.042;10.088;2023-03-01T01:54:00;23.85;;;17.35;;
75165;SDS011;63747;48.042;10.088;2023-03-01T01:57:02;24.50;;;17.23;;
75165;SDS011;63747;48.042;10.088;2023-03-01T02:00:08;23.90;;;17.08;;
75165;SDS011;63747;48.042;10.088;2023-03-01T02:03:17;23.30;;;17.35;;
75165;SDS011;63747;48.042;10.088;2023-03-01T02:06:27;24.20;;;17.65;;
75165;SDS011;63747;48.042;10.088;2023-03-01T02:09:31;22.30;;;16.23;;
75165;SDS011;63747;48.042;10.088;2023-03-01T02:12:33;24.40;;;17.98;;
75165;SDS011;63747;48.042;10.088;2023-03-01T02:15:36;23.35;;;18.35;;
75165;SDS011;63747;48.042;10.088;2023-03-01T02:18:39;24.40;;;19.05;;
75165;SDS011;63747;48.042;10.088;2023-03-01T02:31:17;25.95;;;18.63;;
75165;SDS011;63747;48.042;10.088;2023-03-01T02:34:38;23.85;;;17.85;;
75165;SDS011;63747;48.042;10.088;2023-03-01T02:37:40;24.58;;;18.55;;
75165;SDS011;63747;48.042;10.088;2023-03-01T02:43:42;25.20;;;19.05;;
75165;SDS011;63747;48.042;10.088;2023-03-01T02:46:44;23.20;;;17.80;;
75165;SDS011;63747;48.042;10.088;2023-03-01T02:49:47;23.42;;;16.80;;
75165;SDS011;63747;48.042;10.088;2023-03-01T02:52:57;26.20;;;18.07;;
75165;SDS011;63747;48.042;10.088;2023-03-01T02:56:05;26.13;;;17.75;;
75165;SDS011;63747;48.042;10.088;2023-03-01T02:59:12;24.95;;;17.75;;
75165;SDS011;63747;48.042;10.088;2023-03-01T03:02:20;23.27;;;17.70;;
75165;SDS011;63747;48.042;10.088;2023-03-01T03:05:36;23.42;;;17.95;;
75165;SDS011;63747;48.042;10.088;2023-03-01T03:08:36;26.10;;;17.90;;
75165;SDS011;63747;48.042;10.088;2023-03-01T03:11:37;25.47;;;18.90;;
75165;SDS011;63747;48.042;10.088;2023-03-01T03:14:40;24.60;;;18.05;;
75165;SDS011;63747;48.042;10.088;2023-03-01T03:17:41;25.07;;;17.93;;
75165;SDS011;63747;48.042;10.088;2023-03-01T03:20:43;25.38;;;18.05;;
75165;SDS011;63747;48.042;10.088;2023-03-01T03:23:44;22.10;;;17.13;;
75165;SDS011;63747;48.042;10.088;2023-03-01T03:26:45;26.70;;;18.43;;
75165;SDS011;63747;48.042;10.088;2023-03-01T03:29:45;25.17;;;18.07;;
75165;SDS011;63747;48.042;10.088;2023-03-01T03:32:46;25.47;;;17.77;;
75165;SDS011;63747;48.042;10.088;2023-03-01T03:35:52;27.60;;;18.25;;
75165;SDS011;63747;48.042;10.088;2023-03-01T03:38:52;25.13;;;17.80;;
75165;SDS011;63747;48.042;10.088;2023-03-01T03:41:53;24.63;;;17.47;;
75165;SDS011;63747;48.042;10.088;2023-03-01T03:44:54;23.33;;;13.97;;
75165;SDS011;63747;48.042;10.088;2023-03-01T03:47:54;25.83;;;18.37;;
75165;SDS011;63747;48.042;10.088;2023-03-01T03:50:56;25.57;;;18.93;;
75165;SDS011;63747;48.042;10.088;2023-03-01T03:53:56;26.00;;;19.42;;
75165;SDS011;63747;48.042;10.088;2023-03-01T03:56:57;22.70;;;17.60;;
75165;SDS011;63747;48.042;10.088;2023-03-01T03:59:58;22.77;;;17.60;;
75165;SDS011;63747;48.042;10.088;2023-03-01T04:02:58;25.57;;;18.63;;
75165;SDS011;63747;48.042;10.088;2023-03-01T04:09:01;22.67;;;17.65;;
75165;SDS011;63747;48.042;10.088;2023-03-01T04:12:02;23.27;;;18.07;;
75165;SDS011;63747;48.042;10.088;2023-03-01T04:15:03;25.70;;;18.00;;
75165;SDS011;63747;48.042;10.088;2023-03-01T04:18:13;24.95;;;18.30;;
75165;SDS011;63747;48.042;10.088;2023-03-01T04:24:15;23.08;;;16.75;;
75165;SDS011;63747;48.042;10.088;2023-03-01T04:27:16;26.13;;;18.05;;
75165;SDS011;63747;48.042;10.088;2023-03-01T04:30:17;26.47;;;18.57;;
75165;SDS011;63747;48.042;10.088;2023-03-01T04:33:17;23.10;;;17.13;;
75165;SDS011;63747;48.042;10.088;2023-03-01T04:36:20;23.52;;;16.80;;
75165;SDS011;63747;48.042;10.088;2023-03-01T04:39:23;26.60;;;18.92;;
75165;SDS011;63747;48.042;10.088;2023-03-01T04:42:24;26.10;;;18.23;;
75165;SDS011;63747;48.042;10.088;2023-03-01T04:45:25;24.20;;;18.13;;
75165;SDS011;63747;48.042;10.088;2023-03-01T04:48:26;25.03;;;18.10;;
75165;SDS011;63747;48.042;10.088;2023-03-01T04:51:26;26.90;;;18.30;;
75165;SDS011;63747;48.042;10.088;2023-03-01T04:54:28;25.43;;;17.57;;
75165;SDS011;63747;48.042;10.088;2023-03-01T05:00:30;23.55;;;17.48;;
75165;SDS011;63747;48.042;10.088;2023-03-01T05:03:30;24.57;;;17.80;;
75165;SDS011;63747;48.042;10.088;2023-03-01T05:06:31;25.07;;;18.47;;
75165;SDS011;63747;48.042;10.088;2023-03-01T05:09:32;24.45;;;18.25;;
75165;SDS011;63747;48.042;10.088;2023-03-01T05:12:33;24.13;;;18.60;;
75165;SDS011;63747;48.042;10.088;2023-03-01T05:15:34;28.90;;;18.93;;
75165;SDS011;63747;48.042;10.088;2023-03-01T05:18:36;26.50;;;18.58;;
75165;SDS011;63747;48.042;10.088;2023-03-01T05:21:37;25.10;;;18.15;;
75165;SDS011;63747;48.042;10.088;2023-03-01T05:24:59;24.63;;;18.33;;
75165;SDS011;63747;48.042;10.088;2023-03-01T05:28:00;24.63;;;18.00;;
75165;SDS011;63747;48.042;10.088;2023-03-01T05:31:06;26.50;;;19.27;;
75165;SDS011;63747;48.042;10.088;2023-03-01T05:34:09;25.45;;;19.25;;
75165;SDS011;63747;48.042;10.088;2023-03-01T05:37:13;23.75;;;19.23;;
75165;SDS011;63747;48.042;10.088;2023-03-01T05:40:18;22.42;;;18.25;;
75165;SDS011;63747;48.042;10.088;2023-03-01T05:43:20;27.40;;;17.83;;
75165;SDS011;63747;48.042;10.088;2023-03-01T05:46:21;23.17;;;18.40;;
75165;SDS011;63747;48.042;10.088;2023-03-01T05:49:24;24.35;;;18.83;;
75165;SDS011;63747;48.042;10.088;2023-03-01T05:52:25;25.98;;;18.48;;
75165;SDS011;63747;48.042;10.088;2023-03-01T05:55:27;25.15;;;18.65;;
75165;SDS011;63747;48.042;10.088;2023-03-01T05:58:29;25.30;;;19.17;;
75165;SDS011;63747;48.042;10.088;2023-03-01T06:01:31;22.43;;;17.67;;
75165;SDS011;63747;48.042;10.088;2023-03-01T06:04:32;24.02;;;17.83;;
75165;SDS011;63747;48.042;10.088;2023-03-01T06:07:33;26.13;;;18.50;;
75165;SDS011;63747;48.042;10.088;2023-03-01T06:10:34;26.40;;;18.52;;
75165;SDS011;63747;48.042;10.088;2023-03-01T06:13:35;25.13;;;18.10;;
75165;SDS011;63747;48.042;10.088;2023-03-01T06:16:36;26.10;;;18.97;;
75165;SDS011;63747;48.042;10.088;2023-03-01T06:19:37;23.23;;;18.53;;
75165;SDS011;63747;48.042;10.088;2023-03-01T06:22:37;25.77;;;19.10;;
75165;SDS011;63747;48.042;10.088;2023-03-01T06:25:38;25.53;;;17.73;;
75165;SDS011;63747;48.042;10.088;2023-03-01T06:28:39;24.50;;;17.73;;
75165;SDS011;63747;48.042;10.088;2023-03-01T06:31:40;24.53;;;18.37;;
75165;SDS011;63747;48.042;10.088;2023-03-01T06:34:40;27.03;;;17.80;;
75165;SDS011;63747;48.042;10.088;2023-03-01T06:37:41;23.60;;;17.57;;
75165;SDS011;63747;48.042;10.088;2023-03-01T06:40:42;23.43;;;17.97;;
75165;SDS011;63747;48.042;10.088;2023-03-01T06:43:42;24.83;;;18.23;;
75165;SDS011;63747;48.042;10.088;2023-03-01T06:46:43;23.17;;;17.23;;
75165;SDS011;63747;48.042;10.088;2023-03-01T06:49:44;22.60;;;16.87;;
75165;SDS011;63747;48.042;10.088;2023-03-01T06:52:45;24.10;;;17.17;;
75165;SDS011;63747;48.042;10.088;2023-03-01T06:55:45;22.47;;;17.77;;
75165;SDS011;63747;48.042;10.088;2023-03-01T06:58:46;23.93;;;17.83;;
75165;SDS011;63747;48.042;10.088;2023-03-01T07:01:47;24.60;;;18.23;;
75165;SDS011;63747;48.042;10.088;2023-03-01T07:04:50;23.90;;;18.60;;
75165;SDS011;63747;48.042;10.088;2023-03-01T07:07:52;26.95;;;18.52;;
75165;SDS011;63747;48.042;10.088;2023-03-01T07:13:58;24.65;;;17.25;;
75165;SDS011;63747;48.042;10.088;2023-03-01T07:17:00;23.92;;;17.42;;
75165;SDS011;63747;48.042;10.088;2023-03-01T07:20:00;24.13;;;18.20;;
75165;SDS011;63747;48.042;10.088;2023-03-01T07:23:01;22.97;;;17.20;;
75165;SDS011;63747;48.042;10.088;2023-03-01T07:26:02;27.43;;;18.53;;
75165;SDS011;63747;48.042;10.088;2023-03-01T07:29:03;24.00;;;17.70;;
75165;SDS011;63747;48.042;10.088;2023-03-01T07:32:05;25.67;;;17.08;;
75165;SDS011;63747;48.042;10.088;2023-03-01T07:35:06;23.48;;;18.25;;
75165;SDS011;63747;48.042;10.088;2023-03-01T07:38:07;26.97;;;17.90;;
75165;SDS011;63747;48.042;10.088;2023-03-01T07:41:08;24.03;;;18.00;;
75165;SDS011;63747;48.042;10.088;2023-03-01T07:44:09;20.07;;;15.13;;
75165;SDS011;63747;48.042;10.088;2023-03-01T07:47:10;25.30;;;18.95;;
75165;SDS011;63747;48.042;10.088;2023-03-01T07:50:11;25.23;;;18.30;;
75165;SDS011;63747;48.042;10.088;2023-03-01T07:53:13;23.98;;;18.50;;
75165;SDS011;63747;48.042;10.088;2023-03-01T07:56:14;23.83;;;18.50;;
75165;SDS011;63747;48.042;10.088;2023-03-01T07:59:17;24.30;;;18.85;;
75165;SDS011;63747;48.042;10.088;2023-03-01T08:02:18;24.03;;;17.60;;
75165;SDS011;63747;48.042;10.088;2023-03-01T08:05:19;21.63;;;16.93;;
75165;SDS011;63747;48.042;10.088;2023-03-01T08:08:22;24.10;;;18.33;;
75165;SDS011;63747;48.042;10.088;2023-03-01T08:11:22;22.10;;;17.30;;
75165;SDS011;63747;48.042;10.088;2023-03-01T08:14:23;26.37;;;19.20;;
75165;SDS011;63747;48.042;10.088;2023-03-01T08:17:24;23.58;;;18.08;;
75165;SDS011;63747;48.042;10.088;2023-03-01T08:20:25;23.50;;;17.67;;
75165;SDS011;63747;48.042;10.088;2023-03-01T08:23:26;25.60;;;17.63;;
75165;SDS011;63747;48.042;10.088;2023-03-01T08:26:26;17.97;;;13.10;;
75165;SDS011;63747;48.042;10.088;2023-03-01T08:29:27;24.07;;;19.00;;
75165;SDS011;63747;48.042;10.088;2023-03-01T08:32:28;22.70;;;18.17;;
75165;SDS011;63747;48.042;10.088;2023-03-01T08:35:28;23.97;;;17.63;;
75165;SDS011;63747;48.042;10.088;2023-03-01T08:38:29;24.10;;;17.60;;
75165;SDS011;63747;48.042;10.088;2023-03-01T08:41:30;23.60;;;16.43;;
75165;SDS011;63747;48.042;10.088;2023-03-01T08:44:31;23.98;;;18.08;;
75165;SDS011;63747;48.042;10.088;2023-03-01T08:47:31;19.90;;;16.27;;
75165;SDS011;63747;48.042;10.088;2023-03-01T08:50:33;24.40;;;17.58;;
75165;SDS011;63747;48.042;10.088;2023-03-01T08:53:34;26.20;;;19.43;;
75165;SDS011;63747;48.042;10.088;2023-03-01T08:56:34;25.60;;;17.83;;
75165;SDS011;63747;48.042;10.088;2023-03-01T08:59:35;26.30;;;18.67;;
75165;SDS011;63747;48.042;10.088;2023-03-01T09:02:37;25.08;;;17.55;;
75165;SDS011;63747;48.042;10.088;2023-03-01T09:05:38;24.15;;;18.67;;
75165;SDS011;63747;48.042;10.088;2023-03-01T09:08:40;25.40;;;18.03;;
75165;SDS011;63747;48.042;10.088;2023-03-01T09:11:44;23.40;;;17.92;;
75165;SDS011;63747;48.042;10.088;2023-03-01T09:14:46;24.27;;;18.05;;
75165;SDS011;63747;48.042;10.088;2023-03-01T09:17:46;28.40;;;18.40;;
75165;SDS011;63747;48.042;10.088;2023-03-01T09:20:47;26.27;;;19.43;;
75165;SDS011;63747;48.042;10.088;2023-03-01T09:23:48;21.60;;;16.73;;
75165;SDS011;63747;48.042;10.088;2023-03-01T09:26:49;23.55;;;17.13;;
75165;SDS011;63747;48.042;10.088;2023-03-01T09:29:52;23.38;;;18.23;;
75165;SDS011;63747;48.042;10.088;2023-03-01T09:32:56;25.67;;;18.17;;
75165;SDS011;63747;48.042;10.088;2023-03-01T09:35:58;27.40;;;18.55;;
75165;SDS011;63747;48.042;10.088;2023-03-01T09:39:00;24.50;;;17.80;;
75165;SDS011;63747;48.042;10.088;2023-03-01T09:42:02;25.50;;;18.17;;
75165;SDS011;63747;48.042;10.088;2023-03-01T09:45:05;23.45;;;18.92;;
75165;SDS011;63747;48.042;10.088;2023-03-01T09:48:18;24.98;;;19.08;;
75165;SDS011;63747;48.042;10.088;2023-03-01T09:51:24;26.08;;;18.60;;
75165;SDS011;63747;48.042;10.088;2023-03-01T09:54:29;21.02;;;16.58;;
75165;SDS011;63747;48.042;10.088;2023-03-01T09:57:38;24.27;;;18.33;;
75165;SDS011;63747;48.042;10.088;2023-03-01T10:00:42;23.92;;;17.60;;
75165;SDS011;63747;48.042;10.088;2023-03-01T10:03:47;24.63;;;16.55;;
75165;SDS011;63747;48.042;10.088;2023-03-01T10:10:14;26.20;;;19.55;;
75165;SDS011;63747;48.042;10.088;2023-03-01T10:16:33;24.08;;;19.25;;
75165;SDS011;63747;48.042;10.088;2023-03-01T10:19:40;26.25;;;19.88;;
75165;SDS011;63747;48.042;10.088;2023-03-01T10:22:42;23.58;;;16.33;;
75165;SDS011;63747;48.042;10.088;2023-03-01T10:29:05;26.63;;;19.80;;
75165;SDS011;63747;48.042;10.088;2023-03-01T10:32:08;27.10;;;19.38;;
75165;SDS011;63747;48.042;10.088;2023-03-01T10:35:24;26.95;;;20.27;;
75165;SDS011;63747;48.042;10.088;2023-03-01T10:38:27;28.98;;;19.98;;
75165;SDS011;63747;48.042;10.088;2023-03-01T10:41:31;27.40;;;20.50;;
75165;SDS011;63747;48.042;10.088;2023-03-01T10:47:41;27.92;;;18.77;;
75165;SDS011;63747;48.042;10.088;2023-03-01T10:50:43;27.57;;;20.00;;
75165;SDS011;63747;48.042;10.088;2023-03-01T10:53:48;28.48;;;19.60;;
75165;SDS011;63747;48.042;10.088;2023-03-01T10:56:53;26.13;;;20.45;;
75165;SDS011;63747;48.042;10.088;2023-03-01T11:03:28;26.20;;;19.45;;
75165;SDS011;63747;48.042;10.088;2023-03-01T11:06:29;28.15;;;21.15;;
75165;SDS011;63747;48.042;10.088;2023-03-01T11:09:31;25.83;;;20.13;;
75165;SDS011;63747;48.042;10.088;2023-03-01T11:12:37;24.80;;;19.05;;
75165;SDS011;63747;48.042;10.088;2023-03-01T11:15:38;24.70;;;18.33;;
75165;SDS011;63747;48.042;10.088;2023-03-01T11:18:39;25.67;;;19.23;;
75165;SDS011;63747;48.042;10.088;2023-03-01T11:24:56;25.45;;;19.67;;
75165;SDS011;63747;48.042;10.088;2023-03-01T11:27:58;27.33;;;18.48;;
75165;SDS011;63747;48.042;10.088;2023-03-01T11:31:03;27.45;;;19.90;;
75165;SDS011;63747;48.042;10.088;2023-03-01T11:34:12;27.00;;;19.55;;
75165;SDS011;63747;48.042;10.088;2023-03-01T11:37:21;28.27;;;20.92;;
75165;SDS011;63747;48.042;10.088;2023-03-01T11:40:40;29.52;;;21.92;;
75165;SDS011;63747;48.042;10.088;2023-03-01T11:43:56;30.13;;;21.90;;
75165;SDS011;63747;48.042;10.088;2023-03-01T11:47:06;28.83;;;20.85;;
75165;SDS011;63747;48.042;10.088;2023-03-01T11:50:30;27.45;;;19.95;;
75165;SDS011;63747;48.042;10.088;2023-03-01T11:54:01;26.75;;;20.10;;
75165;SDS011;63747;48.042;10.088;2023-03-01T12:13:27;29.75;;;21.13;;
75165;SDS011;63747;48.042;10.088;2023-03-01T12:16:59;27.35;;;20.20;;
75165;SDS011;63747;48.042;10.088;2023-03-01T12:29:57;31.00;;;19.52;;
75165;SDS011;63747;48.042;10.088;2023-03-01T12:33:02;26.95;;;20.48;;
75165;SDS011;63747;48.042;10.088;2023-03-01T12:39:33;26.10;;;19.92;;
75165;SDS011;63747;48.042;10.088;2023-03-01T12:43:46;27.27;;;20.58;;
75165;SDS011;63747;48.042;10.088;2023-03-01T12:52:55;26.73;;;19.98;;
75165;SDS011;63747;48.042;10.088;2023-03-01T12:55:59;28.48;;;20.95;;
75165;SDS011;63747;48.042;10.088;2023-03-01T12:59:13;28.10;;;20.42;;
75165;SDS011;63747;48.042;10.088;2023-03-01T13:02:22;27.90;;;20.90;;
75165;SDS011;63747;48.042;10.088;2023-03-01T13:05:42;27.10;;;20.83;;
75165;SDS011;63747;48.042;10.088;2023-03-01T13:09:04;28.55;;;19.83;;
75165;SDS011;63747;48.042;10.088;2023-03-01T13:15:44;24.88;;;19.85;;
75165;SDS011;63747;48.042;10.088;2023-03-01T13:18:47;25.70;;;20.00;;
75165;SDS011;63747;48.042;10.088;2023-03-01T13:21:49;24.43;;;19.87;;
75165;SDS011;63747;48.042;10.088;2023-03-01T13:24:57;23.73;;;19.45;;
75165;SDS011;63747;48.042;10.088;2023-03-01T13:34:40;27.17;;;19.75;;
75165;SDS011;63747;48.042;10.088;2023-03-01T13:37:46;27.00;;;20.75;;
75165;SDS011;63747;48.042;10.088;2023-03-01T13:43:50;25.27;;;19.38;;
75165;SDS011;63747;48.042;10.088;2023-03-01T13:46:52;26.33;;;21.07;;
75165;SDS011;63747;48.042;10.088;2023-03-01T13:50:00;29.70;;;21.00;;
75165;SDS011;63747;48.042;10.088;2023-03-01T13:53:03;27.48;;;20.27;;
75165;SDS011;63747;48.042;10.088;2023-03-01T13:56:08;26.42;;;21.63;;
75165;SDS011;63747;48.042;10.088;2023-03-01T14:02:17;26.48;;;21.45;;
75165;SDS011;63747;48.042;10.088;2023-03-01T14:05:18;27.27;;;20.67;;
75165;SDS011;63747;48.042;10.088;2023-03-01T14:08:20;26.90;;;21.70;;
75165;SDS011;63747;48.042;10.088;2023-03-01T14:11:37;26.58;;;21.45;;
75165;SDS011;63747;48.042;10.088;2023-03-01T14:21:12;27.45;;;21.25;;
75165;SDS011;63747;48.042;10.088;2023-03-01T14:24:16;28.00;;;21.50;;
75165;SDS011;63747;48.042;10.088;2023-03-01T14:27:23;28.17;;;22.13;;
75165;SDS011;63747;48.042;10.088;2023-03-01T14:33:33;27.30;;;20.83;;
75165;SDS011;63747;48.042;10.088;2023-03-01T14:36:40;26.33;;;21.40;;
75165;SDS011;63747;48.042;10.088;2023-03-01T14:39:41;29.20;;;22.20;;
75165;SDS011;63747;48.042;10.088;2023-03-01T14:42:42;27.43;;;22.20;;
75165;SDS011;63747;48.042;10.088;2023-03-01T14:45:46;30.10;;;21.80;;
75165;SDS011;63747;48.042;10.088;2023-03-01T14:48:50;26.52;;;20.92;;
75165;SDS011;63747;48.042;10.088;2023-03-01T14:51:54;27.20;;;21.83;;
75165;SDS011;63747;48.042;10.088;2023-03-01T14:55:00;25.67;;;21.38;;
75165;SDS011;63747;48.042;10.088;2023-03-01T14:58:05;26.48;;;21.63;;
75165;SDS011;63747;48.042;10.088;2023-03-01T15:01:13;28.40;;;21.45;;
75165;SDS011;63747;48.042;10.088;2023-03-01T15:04:16;27.02;;;21.92;;
75165;SDS011;63747;48.042;10.088;2023-03-01T15:07:18;26.75;;;21.27;;
75165;SDS011;63747;48.042;10.088;2023-03-01T15:10:24;27.33;;;21.80;;
75165;SDS011;63747;48.042;10.088;2023-03-01T15:13:30;28.15;;;21.83;;
75165;SDS011;63747;48.042;10.088;2023-03-01T15:16:35;26.60;;;21.67;;
75165;SDS011;63747;48.042;10.088;2023-03-01T15:19:41;29.65;;;22.70;;
75165;SDS011;63747;48.042;10.088;2023-03-01T15:22:45;29.30;;;22.47;;
75165;SDS011;63747;48.042;10.088;2023-03-01T15:25:48;28.27;;;21.77;;
75165;SDS011;63747;48.042;10.088;2023-03-01T15:28:57;26.67;;;21.52;;
75165;SDS011;63747;48.042;10.088;2023-03-01T15:32:00;25.40;;;21.10;;
75165;SDS011;63747;48.042;10.088;2023-03-01T15:38:54;25.10;;;21.08;;
75165;SDS011;63747;48.042;10.088;2023-03-01T15:41:57;28.40;;;22.02;;
75165;SDS011;63747;48.042;10.088;2023-03-01T15:48:20;24.95;;;21.13;;
75165;SDS011;63747;48.042;10.088;2023-03-01T15:51:29;27.58;;;21.15;;
75165;SDS011;63747;48.042;10.088;2023-03-01T15:54:34;28.27;;;21.67;;
75165;SDS011;63747;48.042;10.088;2023-03-01T15:57:35;29.50;;;21.07;;
75165;SDS011;63747;48.042;10.088;2023-03-01T16:00:36;26.93;;;21.07;;
75165;SDS011;63747;48.042;10.088;2023-03-01T16:03:37;28.85;;;21.05;;
75165;SDS011;63747;48.042;10.088;2023-03-01T16:06:38;28.93;;;21.40;;
75165;SDS011;63747;48.042;10.088;2023-03-01T16:09:39;27.90;;;22.17;;
75165;SDS011;63747;48.042;10.088;2023-03-01T16:12:39;31.03;;;21.57;;
75165;SDS011;63747;48.042;10.088;2023-03-01T16:15:40;24.67;;;19.67;;
75165;SDS011;63747;48.042;10.088;2023-03-01T16:18:45;26.90;;;22.02;;
75165;SDS011;63747;48.042;10.088;2023-03-01T16:21:46;38.72;;;26.48;;
75165;SDS011;63747;48.042;10.088;2023-03-01T16:24:49;31.95;;;24.27;;
75165;SDS011;63747;48.042;10.088;2023-03-01T16:27:50;35.73;;;26.93;;
75165;SDS011;63747;48.042;10.088;2023-03-01T16:30:51;35.40;;;26.48;;
75165;SDS011;63747;48.042;10.088;2023-03-01T16:33:53;37.13;;;26.83;;
75165;SDS011;63747;48.042;10.088;2023-03-01T16:36:54;36.10;;;26.27;;
75165;SDS011;63747;48.042;10.088;2023-03-01T16:39:55;32.27;;;25.17;;
75165;SDS011;63747;48.042;10.088;2023-03-01T16:42:56;32.37;;;24.37;;
75165;SDS011;63747;48.042;10.088;2023-03-01T16:46:00;27.20;;;23.15;;
75165;SDS011;63747;48.042;10.088;2023-03-01T16:49:03;30.45;;;23.48;;
75165;SDS011;63747;48.042;10.088;2023-03-01T16:52:04;28.10;;;23.00;;
75165;SDS011;63747;48.042;10.088;2023-03-01T16:55:05;31.93;;;23.13;;
75165;SDS011;63747;48.042;10.088;2023-03-01T16:58:09;29.45;;;23.48;;
75165;SDS011;63747;48.042;10.088;2023-03-01T17:01:11;29.53;;;22.40;;
75165;SDS011;63747;48.042;10.088;2023-03-01T17:04:14;31.42;;;24.33;;
75165;SDS011;63747;48.042;10.088;2023-03-01T17:07:15;34.17;;;26.17;;
75165;SDS011;63747;48.042;10.088;2023-03-01T17:10:15;32.10;;;24.20;;
75165;SDS011;63747;48.042;10.088;2023-03-01T17:13:16;29.67;;;22.57;;
75165;SDS011;63747;48.042;10.088;2023-03-01T17:16:17;33.77;;;23.63;;
75165;SDS011;63747;48.042;10.088;2023-03-01T17:19:19;33.22;;;24.50;;
75165;SDS011;63747;48.042;10.088;2023-03-01T17:22:20;36.17;;;24.47;;
75165;SDS011;63747;48.042;10.088;2023-03-01T17:25:20;34.03;;;25.00;;
75165;SDS011;63747;48.042;10.088;2023-03-01T17:28:22;32.77;;;25.57;;
75165;SDS011;63747;48.042;10.088;2023-03-01T17:31:24;35.95;;;25.88;;
75165;SDS011;63747;48.042;10.088;2023-03-01T17:34:25;35.43;;;26.07;;
75165;SDS011;63747;48.042;10.088;2023-03-01T17:37:26;34.88;;;26.75;;
75165;SDS011;63747;48.042;10.088;2023-03-01T17:40:27;33.93;;;26.27;;
75165;SDS011;63747;48.042;10.088;2023-03-01T17:43:28;49.63;;;30.17;;
75165;SDS011;63747;48.042;10.088;2023-03-01T17:46:28;43.13;;;30.97;;
75165;SDS011;63747;48.042;10.088;2023-03-01T17:49:29;36.63;;;28.53;;
75165;SDS011;63747;48.042;10.088;2023-03-01T17:52:30;36.75;;;27.85;;
75165;SDS011;63747;48.042;10.088;2023-03-01T17:55:31;37.57;;;27.03;;
75165;SDS011;63747;48.042;10.088;2023-03-01T17:58:32;36.63;;;26.53;;
75165;SDS011;63747;48.042;10.088;2023-03-01T18:01:33;33.42;;;25.27;;
75165;SDS011;63747;48.042;10.088;2023-03-01T18:04:37;43.53;;;29.30;;
75165;SDS011;63747;48.042;10.088;2023-03-01T18:07:38;33.10;;;26.27;;
75165;SDS011;63747;48.042;10.088;2023-03-01T18:10:38;32.97;;;26.43;;
75165;SDS011;63747;48.042;10.088;2023-03-01T18:13:39;34.57;;;26.20;;
75165;SDS011;63747;48.042;10.088;2023-03-01T18:16:40;33.80;;;24.90;;
75165;SDS011;63747;48.042;10.088;2023-03-01T18:19:41;32.87;;;26.03;;
75165;SDS011;63747;48.042;10.088;2023-03-01T18:22:42;34.58;;;25.35;;
75165;SDS011;63747;48.042;10.088;2023-03-01T18:25:43;34.70;;;25.83;;
75165;SDS011;63747;48.042;10.088;2023-03-01T18:28:43;44.43;;;34.03;;
75165;SDS011;63747;48.042;10.088;2023-03-01T18:31:48;59.80;;;42.80;;
75165;SDS011;63747;48.042;10.088;2023-03-01T18:34:48;108.30;;;59.13;;
75165;SDS011;63747;48.042;10.088;2023-03-01T18:37:49;174.67;;;88.73;;
75165;SDS011;63747;48.042;10.088;2023-03-01T18:40:50;156.98;;;81.40;;
75165;SDS011;63747;48.042;10.088;2023-03-01T18:43:52;65.10;;;42.38;;
75165;SDS011;63747;48.042;10.088;2023-03-01T18:46:54;41.42;;;28.40;;
75165;SDS011;63747;48.042;10.088;2023-03-01T18:49:57;43.13;;;30.65;;
75165;SDS011;63747;48.042;10.088;2023-03-01T18:52:57;38.17;;;28.60;;
75165;SDS011;63747;48.042;10.088;2023-03-01T18:55:58;35.87;;;27.57;;
75165;SDS011;63747;48.042;10.088;2023-03-01T18:59:01;33.47;;;25.48;;
75165;SDS011;63747;48.042;10.088;2023-03-01T19:02:03;35.72;;;27.25;;
75165;SDS011;63747;48.042;10.088;2023-03-01T19:05:03;37.47;;;26.73;;
75165;SDS011;63747;48.042;10.088;2023-03-01T19:08:04;39.73;;;29.77;;
75165;SDS011;63747;48.042;10.088;2023-03-01T19:11:05;39.20;;;29.13;;
75165;SDS011;63747;48.042;10.088;2023-03-01T19:14:06;38.00;;;27.27;;
75165;SDS011;63747;48.042;10.088;2023-03-01T19:17:07;38.67;;;27.52;;
75165;SDS011;63747;48.042;10.088;2023-03-01T19:20:08;36.00;;;27.23;;
75165;SDS011;63747;48.042;10.088;2023-03-01T19:26:11;35.55;;;26.67;;
75165;SDS011;63747;48.042;10.088;2023-03-01T19:29:14;32.72;;;24.98;;
75165;SDS011;63747;48.042;10.088;2023-03-01T19:32:15;37.00;;;25.93;;
75165;SDS011;63747;48.042;10.088;2023-03-01T19:35:17;36.13;;;24.83;;